Time;durP1;ratioP1;P1;durP2;ratioP2;P2;SDS_P1;SDS_P2;PMS_P1;PMS_P2;Temp;Humidity;BMP_temperature;BMP_pressure;BME280_temperature;BME280_humidity;BME280_pressure;Samples;Min_cycle;Max_cycle;Signal;HPM_P1;HPM_P2
2022/03/03 14:12:15;;;;;;;20.55;17.80;;;20.20;44.80;;;;;;2291599;62;29994;-75
2022/03/03 14:14:46;;;;;;;22.02;18.13;;;19.90;53.80;;;;;;2282289;62;30280;-76
2022/03/03 14:17:13;;;;;;;19.13;17.10;;;19.70;53.60;;;;;;2282230;62;30934;-77
2022/03/03 14:19:40;;;;;;;19.98;17.85;;;19.80;56.00;;;;;;2282835;62;30970;-77
2022/03/03 14:22:10;;;;;;;21.27;17.13;;;19.80;56.50;;;;;;2282655;62;30138;-77
2022/03/03 14:24:38;;;;;;;19.60;15.43;;;19.90;54.90;;;;;;2282955;62;30013;-75
2022/03/03 14:27:06;;;;;;;18.17;15.43;;;20.00;55.50;;;;;;2283049;62;30328;-75
2022/03/03 14:29:32;;;;;;;17.77;15.57;;;20.20;54.60;;;;;;2276736;62;30147;-76
2022/03/03 14:31:58;;;;;;;18.00;15.13;;;20.40;54.90;;;;;;2283529;62;30345;-75
2022/03/03 14:34:24;;;;;;;18.25;14.88;;;21.10;53.30;;;;;;2291157;62;30306;-75
2022/03/03 14:36:50;;;;;;;15.65;13.95;;;22.00;52.30;;;;;;2290645;62;30045;-75
2022/03/03 14:39:16;;;;;;;15.45;13.85;;;22.70;49.60;;;;;;2291018;62;31154;-75
2022/03/03 14:41:41;;;;;;;16.67;14.40;;;23.00;48.30;;;;;;2289757;62;32463;-74
2022/03/03 14:44:08;;;;;;;15.15;13.43;;;23.40;47.00;;;;;;2273599;62;30054;-75
2022/03/03 14:46:34;;;;;;;17.88;13.40;;;23.60;45.80;;;;;;2282667;62;30280;-74
2022/03/03 14:49:00;;;;;;;14.15;12.35;;;23.50;44.90;;;;;;2282664;62;32189;-72
2022/03/03 14:51:27;;;;;;;14.20;12.23;;;23.40;45.30;;;;;;2282159;62;30624;-73
2022/03/03 14:53:53;;;;;;;14.95;13.27;;;23.20;44.70;;;;;;2275264;62;30266;-74
2022/03/03 14:56:19;;;;;;;13.95;12.45;;;23.00;45.00;;;;;;2275350;62;30019;-74
2022/03/03 14:58:45;;;;;;;13.40;12.00;;;22.60;45.10;;;;;;2282245;62;31015;-70
2022/03/03 15:01:11;;;;;;;12.43;10.80;;;22.40;45.10;;;;;;2282572;62;30636;-72
2022/03/03 15:03:37;;;;;;;15.55;12.13;;;21.80;45.20;;;;;;2282613;62;30207;-72
2022/03/03 15:06:04;;;;;;;12.65;11.32;;;21.30;45.90;;;;;;2282448;62;30297;-73
2022/03/03 15:08:30;;;;;;;13.98;12.07;;;21.30;45.40;;;;;;2282493;62;30041;-72
2022/03/03 15:10:56;;;;;;;14.65;11.70;;;21.50;45.00;;;;;;2275096;62;30199;-72
2022/03/03 15:13:25;;;;;;;14.85;12.10;;;21.30;44.30;;;;;;2282069;62;30528;-73
2022/03/03 15:15:53;;;;;;;13.10;11.68;;;21.00;44.50;;;;;;2275301;62;30291;-73
2022/03/03 15:18:18;;;;;;;13.90;12.27;;;21.20;43.90;;;;;;2281804;62;32615;-73
2022/03/03 15:20:44;;;;;;;13.57;11.57;;;21.40;43.40;;;;;;2286291;62;30293;-74
2022/03/03 15:23:10;;;;;;;11.25;10.05;;;21.70;42.90;;;;;;2279537;62;30064;-74
2022/03/03 15:25:36;;;;;;;12.52;10.48;;;22.20;42.60;;;;;;2285063;62;30077;-73
2022/03/03 15:28:02;;;;;;;10.95;9.85;;;22.60;42.40;;;;;;2277902;62;31030;-74
2022/03/03 15:30:28;;;;;;;10.13;9.13;;;22.90;42.00;;;;;;2285259;62;30230;-74
2022/03/03 15:32:57;;;;;;;13.30;9.45;;;23.10;42.00;;;;;;2285094;62;30107;-75
2022/03/03 15:38:11;;;;;;;10.30;7.80;;;23.30;41.10;;;;;;2282162;62;30807;-75
2022/03/03 15:40:38;;;;;;;9.18;8.20;;;23.30;41.50;;;;;;2276869;62;30243;-75
2022/03/03 15:43:04;;;;;;;9.40;8.00;;;23.40;41.40;;;;;;2269887;62;30260;-75
2022/03/03 15:45:29;;;;;;;8.52;7.57;;;23.30;41.50;;;;;;2277022;62;30340;-75
2022/03/03 15:47:55;;;;;;;8.02;7.22;;;23.20;41.80;;;;;;2276880;62;30116;-75
2022/03/03 15:50:21;;;;;;;8.55;7.75;;;22.90;42.20;;;;;;2277135;62;30200;-75
2022/03/03 15:52:47;;;;;;;8.73;6.40;;;22.50;42.90;;;;;;2277205;62;30248;-75
2022/03/03 15:55:13;;;;;;;6.80;6.10;;;22.00;43.60;;;;;;2276936;62;30278;-75
2022/03/03 15:57:39;;;;;;;25.13;6.80;;;21.60;44.50;;;;;;2276896;62;30741;-75
2022/03/03 16:00:06;;;;;;;6.82;6.13;;;21.20;45.20;;;;;;2276941;62;30265;-73
2022/03/03 16:02:32;;;;;;;7.25;6.35;;;20.80;45.90;;;;;;2277090;62;30453;-75
2022/03/03 16:04:58;;;;;;;6.90;6.20;;;20.50;46.70;;;;;;2277043;62;30269;-75
2022/03/03 16:07:24;;;;;;;8.02;5.90;;;20.30;47.20;;;;;;2277065;62;30030;-75
2022/03/03 16:09:49;;;;;;;5.68;5.18;;;20.00;47.70;;;;;;2269459;62;31121;-74
2022/03/03 16:12:15;;;;;;;6.32;5.15;;;19.90;48.10;;;;;;2269635;62;30165;-75
2022/03/03 16:14:41;;;;;;;5.50;5.00;;;19.70;48.50;;;;;;2276148;62;30474;-76
2022/03/03 16:17:09;;;;;;;9.27;5.30;;;19.50;48.70;;;;;;2276734;62;30907;-79
2022/03/03 16:19:34;;;;;;;6.00;5.40;;;19.40;49.00;;;;;;2269383;62;30479;-78
2022/03/03 16:22:01;;;;;;;12.38;4.90;;;19.30;49.20;;;;;;2276768;62;30154;-83
2022/03/03 16:24:26;;;;;;;6.25;4.97;;;19.20;49.30;;;;;;2276627;62;30417;-80
2022/03/03 16:26:52;;;;;;;6.00;5.20;;;19.00;49.40;;;;;;2269446;62;30777;-76
2022/03/03 16:29:18;;;;;;;6.95;4.65;;;18.90;49.60;;;;;;2276585;62;31941;-80
2022/03/03 16:32:01;;;;;;;5.15;4.60;;;18.80;49.80;;;;;;2269187;62;30294;-79
2022/03/03 16:34:27;;;;;;;5.28;4.22;;;18.70;50.00;;;;;;2275424;62;30197;-79
2022/03/03 16:36:53;;;;;;;6.20;4.57;;;18.50;50.20;;;;;;2276528;62;30155;-79
2022/03/03 16:39:19;;;;;;;5.07;4.57;;;18.40;50.30;;;;;;2275780;62;30662;-79
2022/03/03 16:41:46;;;;;;;5.53;4.90;;;18.30;50.50;;;;;;2276283;62;30201;-76
2022/03/03 16:44:12;;;;;;;5.05;4.55;;;18.20;50.80;;;;;;2275097;62;30107;-78
2022/03/03 16:46:38;;;;;;;4.80;4.40;;;18.20;51.10;;;;;;2275933;62;31020;-78
2022/03/03 16:49:03;;;;;;;6.03;4.85;;;18.10;51.40;;;;;;2270088;62;30386;-76
2022/03/03 16:51:32;;;;;;;5.15;4.45;;;17.90;51.60;;;;;;2270507;62;30273;-77
2022/03/03 16:53:59;;;;;;;5.00;4.50;;;17.90;52.10;;;;;;2280956;62;30198;-77
2022/03/03 16:56:25;;;;;;;7.57;4.35;;;17.70;52.30;;;;;;2278837;62;30186;-74
2022/03/03 16:58:52;;;;;;;5.18;4.70;;;17.70;52.50;;;;;;2275476;62;30217;-83
2022/03/03 17:01:17;;;;;;;4.60;4.13;;;17.60;52.70;;;;;;2275818;62;30254;-84
2022/03/03 17:03:43;;;;;;;7.40;4.50;;;17.50;52.60;;;;;;2279387;62;30299;-84
2022/03/03 17:06:09;;;;;;;7.90;4.65;;;17.50;53.00;;;;;;2283786;62;30732;-83
2022/03/03 17:08:35;;;;;;;5.28;4.43;;;17.50;53.00;;;;;;2283837;62;30654;-83
2022/03/03 17:11:01;;;;;;;4.65;4.15;;;17.40;53.10;;;;;;2276052;62;30559;-83
2022/03/03 17:13:28;;;;;;;4.10;3.80;;;17.40;53.60;;;;;;2276175;62;30176;-84
2022/03/03 17:15:54;;;;;;;5.20;4.07;;;17.30;53.70;;;;;;2283658;62;30126;-83
2022/03/03 17:18:22;;;;;;;4.20;3.60;;;17.30;53.90;;;;;;2276137;62;30173;-83
2022/03/03 17:20:48;;;;;;;4.45;4.05;;;17.20;54.10;;;;;;2283514;62;30061;-84
2022/03/03 17:23:13;;;;;;;3.92;3.60;;;17.10;54.70;;;;;;2271045;62;30208;-85
2022/03/03 17:25:41;;;;;;;4.85;3.85;;;17.10;54.50;;;;;;2272825;62;32059;-85
2022/03/03 17:28:07;;;;;;;8.05;3.83;;;17.00;54.90;;;;;;2275386;62;30698;-83
2022/03/03 17:30:33;;;;;;;4.90;3.38;;;16.90;55.00;;;;;;2275287;62;29968;-83
2022/03/03 17:32:59;;;;;;;3.78;3.47;;;16.90;55.30;;;;;;2275037;62;30191;-80
2022/03/03 17:35:25;;;;;;;5.40;3.60;;;16.80;55.40;;;;;;2267992;62;31365;-81
2022/03/03 17:37:52;;;;;;;3.97;3.58;;;16.70;55.50;;;;;;2267913;62;30721;-79
2022/03/03 17:40:19;;;;;;;4.60;3.30;;;16.70;55.70;;;;;;2274930;62;30323;-79
2022/03/03 17:42:45;;;;;;;3.58;3.13;;;16.70;55.90;;;;;;2268458;62;30158;-75
2022/03/03 17:45:12;;;;;;;5.65;3.45;;;16.60;55.80;;;;;;2275767;62;30337;-78
2022/03/03 17:47:38;;;;;;;4.13;3.53;;;16.60;56.40;;;;;;2275682;62;31596;-79
2022/03/03 17:50:05;;;;;;;7.93;3.70;;;16.60;56.70;;;;;;2275343;62;30315;-76
2022/03/03 17:52:30;;;;;;;4.72;3.92;;;16.50;56.80;;;;;;2275793;62;30150;-78
2022/03/03 17:54:56;;;;;;;5.50;3.83;;;16.50;57.00;;;;;;2275909;62;30145;-77
2022/03/03 17:57:22;;;;;;;6.68;3.88;;;16.40;57.10;;;;;;2280647;62;30553;-78
2022/03/03 17:59:48;;;;;;;5.50;3.78;;;16.40;57.30;;;;;;2284069;62;30258;-81
2022/03/03 18:02:14;;;;;;;6.60;5.05;;;16.40;58.20;;;;;;2284247;62;30110;-81
2022/03/03 18:04:40;;;;;;;7.30;5.35;;;16.40;58.20;;;;;;2284311;62;31186;-80
2022/03/03 18:07:06;;;;;;;6.97;4.40;;;16.40;58.60;;;;;;2284197;62;30397;-80
2022/03/03 18:09:32;;;;;;;6.22;4.40;;;16.50;58.60;;;;;;2270326;62;30406;-79
2022/03/03 18:11:59;;;;;;;6.63;4.32;;;16.50;58.70;;;;;;2277316;62;30437;-80
2022/03/03 18:14:24;;;;;;;5.78;4.07;;;16.60;59.10;;;;;;2276010;62;30152;-78
2022/03/03 18:16:50;;;;;;;7.35;4.47;;;16.60;59.10;;;;;;2276258;62;30974;-78
2022/03/03 18:19:19;;;;;;;6.43;3.92;;;16.60;59.30;;;;;;2268868;62;30159;-78
2022/03/03 18:21:46;;;;;;;6.25;3.97;;;16.60;59.70;;;;;;2275408;62;30425;-81
2022/03/03 18:24:12;;;;;;;7.00;3.85;;;16.60;60.20;;;;;;2268577;62;30829;-84
2022/03/03 18:26:39;;;;;;;3.80;3.22;;;16.70;60.10;;;;;;2275626;62;30405;-81
2022/03/03 18:29:06;;;;;;;5.28;3.08;;;16.70;60.10;;;;;;2268260;62;30141;-81
2022/03/03 18:31:33;;;;;;;4.85;2.72;;;16.80;60.10;;;;;;2275942;62;30350;-80
2022/03/03 18:33:58;;;;;;;2.95;2.70;;;16.90;60.20;;;;;;2275788;62;30518;-79
2022/03/03 18:36:24;;;;;;;2.65;2.30;;;17.00;60.30;;;;;;2280376;62;30600;-79
2022/03/03 18:38:51;;;;;;;3.88;2.88;;;17.10;60.30;;;;;;2284361;62;30191;-81
2022/03/03 18:41:16;;;;;;;3.10;2.45;;;17.10;60.40;;;;;;2285191;62;30322;-86
2022/03/03 18:43:42;;;;;;;2.55;2.00;;;17.20;60.20;;;;;;2285227;62;30248;-85
2022/03/03 18:46:08;;;;;;;4.18;2.53;;;17.20;60.10;;;;;;2282249;62;30933;-81
2022/03/03 18:48:34;;;;;;;3.65;1.95;;;17.30;60.10;;;;;;2275636;62;30395;-81
2022/03/03 18:51:00;;;;;;;4.22;2.00;;;17.30;60.10;;;;;;2273806;62;30907;-79
2022/03/03 18:53:26;;;;;;;2.65;1.70;;;17.30;60.50;;;;;;2278925;62;30260;-82
2022/03/03 18:55:52;;;;;;;1.90;1.80;;;17.30;60.30;;;;;;2283210;62;30604;-80
2022/03/03 18:58:18;;;;;;;2.42;2.05;;;17.40;60.30;;;;;;2269177;62;30284;-75
2022/03/03 19:00:43;;;;;;;2.78;1.83;;;17.40;60.20;;;;;;2277946;62;30795;-75
2022/03/03 19:03:09;;;;;;;3.78;1.73;;;17.40;60.20;;;;;;2275566;62;30364;-75
2022/03/03 19:05:36;;;;;;;1.70;1.60;;;17.40;60.20;;;;;;2268242;62;30365;-75
2022/03/03 19:08:02;;;;;;;1.80;1.52;;;17.40;60.20;;;;;;2268388;62;30300;-75
2022/03/03 19:10:28;;;;;;;1.98;1.48;;;17.40;60.20;;;;;;2275508;62;30882;-76
2022/03/03 19:12:54;;;;;;;1.60;1.50;;;17.40;60.20;;;;;;2275852;62;30360;-75
2022/03/03 19:15:20;;;;;;;1.80;1.50;;;17.40;60.30;;;;;;2275823;62;30283;-75
2022/03/03 19:17:47;;;;;;;1.60;1.50;;;17.40;60.30;;;;;;2275502;62;30433;-71
2022/03/03 19:20:17;;;;;;;2.17;1.50;;;17.40;60.30;;;;;;2274659;62;30259;-71
2022/03/03 19:22:43;;;;;;;2.28;1.65;;;17.40;60.40;;;;;;2275625;62;30892;-71
2022/03/03 19:25:09;;;;;;;2.72;2.22;;;17.40;60.50;;;;;;2275483;62;30832;-71
2022/03/03 19:27:35;;;;;;;2.55;1.73;;;17.40;60.50;;;;;;2275834;62;30016;-71
2022/03/03 19:30:01;;;;;;;1.63;1.50;;;17.40;60.60;;;;;;2268533;62;30184;-71
2022/03/03 19:35:11;;;;;;;1.50;1.40;;;17.40;60.60;;;;;;2275765;62;30173;-77
2022/03/03 19:37:37;;;;;;;2.50;1.80;;;17.40;60.80;;;;;;2262057;62;30332;-79
2022/03/03 19:40:04;;;;;;;1.30;1.25;;;17.40;60.50;;;;;;2275832;62;30064;-75
2022/03/03 19:42:30;;;;;;;2.38;1.75;;;17.40;60.50;;;;;;2268327;62;30851;-75
2022/03/03 19:44:56;;;;;;;3.78;1.83;;;17.40;60.40;;;;;;2261343;62;31182;-77
2022/03/03 19:47:22;;;;;;;2.05;1.40;;;17.40;60.30;;;;;;2275519;62;30829;-77
2022/03/03 19:49:48;;;;;;;2.38;1.55;;;17.40;60.40;;;;;;2268302;62;30196;-78
2022/03/03 19:52:13;;;;;;;1.90;1.80;;;17.40;60.50;;;;;;2268368;62;30308;-78
2022/03/03 19:54:39;;;;;;;3.83;2.00;;;17.40;60.50;;;;;;2274586;62;30456;-76
2022/03/03 19:57:05;;;;;;;1.63;1.52;;;17.30;60.50;;;;;;2275068;62;30241;-76
2022/03/03 19:59:31;;;;;;;2.00;1.90;;;17.40;60.60;;;;;;2268147;62;30247;-76
2022/03/03 20:01:57;;;;;;;1.75;1.65;;;17.40;60.70;;;;;;2281456;62;30001;-76
2022/03/03 20:04:23;;;;;;;2.35;1.70;;;17.40;60.70;;;;;;2281631;62;30349;-76
2022/03/03 20:06:50;;;;;;;1.63;1.52;;;17.40;60.80;;;;;;2275587;62;30211;-75
2022/03/03 20:12:00;;;;;;;3.28;1.80;;;17.40;60.80;;;;;;2275491;62;30265;-75
2022/03/03 20:14:28;;;;;;;1.90;1.80;;;17.40;60.90;;;;;;2267945;62;31108;-76
2022/03/03 20:16:56;;;;;;;1.70;1.60;;;17.40;61.00;;;;;;2275791;62;30112;-76
2022/03/03 20:19:22;;;;;;;1.92;1.83;;;17.40;61.00;;;;;;2275696;62;30834;-76
2022/03/03 20:21:50;;;;;;;1.92;1.83;;;17.40;61.00;;;;;;2275384;62;31761;-77
2022/03/03 20:24:16;;;;;;;2.10;1.90;;;17.40;61.10;;;;;;2268167;62;30144;-74
2022/03/03 20:26:42;;;;;;;2.13;1.90;;;17.40;61.20;;;;;;2275508;62;30110;-74
2022/03/03 20:29:08;;;;;;;3.20;1.85;;;17.40;61.20;;;;;;2277944;62;30241;-75
2022/03/03 20:31:34;;;;;;;1.90;1.80;;;17.40;61.20;;;;;;2283692;62;30313;-75
2022/03/03 20:34:00;;;;;;;2.00;1.80;;;17.50;61.30;;;;;;2283638;62;31331;-75
2022/03/03 20:36:25;;;;;;;2.17;1.98;;;17.50;61.30;;;;;;2275993;62;30039;-75
2022/03/03 20:38:52;;;;;;;1.90;1.80;;;17.50;61.30;;;;;;2283668;62;30011;-76
2022/03/03 20:41:19;;;;;;;1.73;1.63;;;17.50;61.40;;;;;;2283537;62;30247;-76
2022/03/03 20:43:45;;;;;;;1.98;1.88;;;17.50;61.50;;;;;;2276017;62;30302;-75
2022/03/03 20:46:11;;;;;;;2.15;1.95;;;17.50;61.50;;;;;;2276092;62;30370;-75
2022/03/03 20:48:37;;;;;;;2.15;2.00;;;17.50;61.50;;;;;;2269483;62;30228;-75
2022/03/03 20:51:03;;;;;;;2.35;2.20;;;17.50;61.50;;;;;;2283381;62;31054;-76
2022/03/03 20:53:29;;;;;;;2.17;2.08;;;17.50;61.50;;;;;;2269439;62;30555;-76
2022/03/03 20:55:55;;;;;;;2.50;2.30;;;17.50;61.60;;;;;;2283283;62;30123;-76
2022/03/03 20:58:21;;;;;;;2.53;2.33;;;17.40;61.60;;;;;;2276089;62;30556;-74
2022/03/03 21:00:48;;;;;;;2.50;2.30;;;17.40;61.80;;;;;;2276065;62;30557;-77
2022/03/03 21:03:17;;;;;;;2.38;2.17;;;17.40;61.90;;;;;;2269210;62;30525;-75
2022/03/03 21:05:43;;;;;;;2.20;2.10;;;17.40;62.00;;;;;;2283314;62;30290;-76
2022/03/03 21:08:10;;;;;;;2.25;2.15;;;17.40;62.00;;;;;;2276164;62;30345;-73
2022/03/03 21:10:36;;;;;;;2.20;2.00;;;17.40;62.10;;;;;;2275762;62;31042;-75
2022/03/03 21:13:02;;;;;;;2.10;1.95;;;17.40;62.10;;;;;;2276175;62;30534;-75
2022/03/03 21:15:28;;;;;;;2.63;2.42;;;17.40;62.10;;;;;;2283383;62;30279;-74
2022/03/03 21:17:54;;;;;;;2.22;2.03;;;17.40;62.10;;;;;;2275864;62;30279;-74
2022/03/03 21:20:24;;;;;;;2.40;2.20;;;17.40;62.10;;;;;;2273323;62;30097;-75
2022/03/03 21:22:54;;;;;;;2.80;2.60;;;17.40;62.10;;;;;;2275242;62;31059;-75
2022/03/03 21:25:20;;;;;;;2.42;2.22;;;17.40;62.10;;;;;;2267651;62;30143;-80
2022/03/03 21:27:46;;;;;;;2.33;2.22;;;17.40;62.20;;;;;;2275036;62;30050;-76
2022/03/03 21:30:12;;;;;;;2.70;2.50;;;17.40;62.10;;;;;;2267687;62;30343;-77
2022/03/03 21:32:38;;;;;;;2.30;2.10;;;17.40;62.10;;;;;;2274879;62;30283;-76
2022/03/03 21:35:06;;;;;;;2.63;2.42;;;17.40;62.10;;;;;;2267797;62;30522;-77
2022/03/03 21:37:32;;;;;;;2.40;2.30;;;17.40;62.20;;;;;;2267616;62;30422;-77
2022/03/03 21:39:58;;;;;;;2.78;2.58;;;17.40;62.40;;;;;;2274762;62;30288;-77
2022/03/03 21:42:24;;;;;;;2.55;2.35;;;17.40;62.20;;;;;;2275149;62;30155;-76
2022/03/03 21:44:50;;;;;;;2.55;2.35;;;17.30;62.20;;;;;;2275005;62;30243;-82
2022/03/03 21:47:16;;;;;;;2.60;2.40;;;17.30;62.40;;;;;;2275097;62;30599;-79
2022/03/03 21:49:42;;;;;;;2.53;2.33;;;17.20;62.50;;;;;;2275394;62;30174;-80
2022/03/03 21:52:08;;;;;;;2.70;2.40;;;17.30;62.70;;;;;;2275126;62;32075;-78
2022/03/03 21:54:34;;;;;;;2.38;2.20;;;17.20;62.70;;;;;;2268629;62;30078;-77
2022/03/03 21:57:00;;;;;;;2.53;2.33;;;17.30;62.80;;;;;;2267971;62;30218;-78
2022/03/03 21:59:26;;;;;;;2.28;2.08;;;17.30;62.70;;;;;;2275088;62;30937;-79
2022/03/03 22:01:54;;;;;;;2.33;2.15;;;17.30;62.80;;;;;;2278320;62;30765;-78
2022/03/03 22:04:20;;;;;;;2.53;2.33;;;17.30;62.80;;;;;;2269115;62;30232;-78
2022/03/03 22:06:46;;;;;;;2.60;2.30;;;17.30;62.70;;;;;;2274472;62;33216;-79
2022/03/03 22:09:12;;;;;;;2.50;2.30;;;17.30;62.60;;;;;;2261542;62;30565;-80
2022/03/03 22:11:39;;;;;;;2.95;2.75;;;17.30;62.60;;;;;;2278354;62;30532;-81
2022/03/03 22:14:05;;;;;;;2.60;2.40;;;17.40;63.20;;;;;;2282991;62;30127;-78
2022/03/03 22:16:31;;;;;;;2.42;2.22;;;17.30;62.70;;;;;;2283081;62;30417;-81
2022/03/03 22:18:58;;;;;;;2.40;2.20;;;17.30;62.70;;;;;;2283313;62;30139;-83
2022/03/03 22:21:24;;;;;;;2.42;2.22;;;17.20;62.80;;;;;;2275748;62;30167;-81
2022/03/03 22:23:52;;;;;;;2.63;2.42;;;17.20;62.90;;;;;;2276197;62;30017;-84
2022/03/03 22:26:18;;;;;;;2.53;2.33;;;17.20;63.00;;;;;;2283271;62;30221;-84
2022/03/03 22:28:44;;;;;;;2.70;2.50;;;17.20;62.80;;;;;;2283196;62;30125;-83
2022/03/03 22:31:10;;;;;;;2.35;2.25;;;17.20;62.80;;;;;;2281844;62;30277;-81
2022/03/03 22:33:37;;;;;;;2.60;2.40;;;17.20;62.80;;;;;;2275790;62;30401;-79
2022/03/03 22:36:03;;;;;;;2.45;2.28;;;17.30;62.80;;;;;;2275931;62;30241;-75
2022/03/03 22:38:31;;;;;;;2.75;2.30;;;17.30;62.80;;;;;;2276429;62;31047;-84
2022/03/03 22:40:57;;;;;;;2.45;2.25;;;17.20;62.70;;;;;;2275255;62;30686;-81
2022/03/03 22:43:24;;;;;;;2.47;2.28;;;17.30;62.80;;;;;;2275816;62;30794;-79
2022/03/03 22:45:50;;;;;;;3.28;2.50;;;17.30;62.80;;;;;;2276174;62;30613;-81
2022/03/03 22:48:16;;;;;;;3.10;2.80;;;17.30;62.70;;;;;;2269350;62;31066;-79
2022/03/03 22:53:26;;;;;;;2.70;2.50;;;17.20;62.80;;;;;;2280813;62;30278;-80
2022/03/03 22:55:52;;;;;;;2.88;2.35;;;17.20;62.90;;;;;;2277233;62;30245;-79
2022/03/03 22:58:18;;;;;;;2.15;2.05;;;17.20;62.90;;;;;;2283272;62;30738;-81
2022/03/03 23:01:11;;;;;;;2.92;2.72;;;17.20;62.90;;;;;;2284395;62;30501;-84
2022/03/03 23:06:21;;;;;;;2.65;2.45;;;17.20;63.30;;;;;;2281063;62;30221;-79
2022/03/03 23:08:48;;;;;;;2.60;2.33;;;17.30;63.50;;;;;;2269022;62;31208;-83
2022/03/03 23:11:14;;;;;;;3.03;2.83;;;17.20;63.40;;;;;;2263303;62;30420;-78
2022/03/03 23:13:40;;;;;;;3.13;2.92;;;17.20;63.90;;;;;;2267989;62;29918;-77
